Time;durP1;ratioP1;P1;durP2;ratioP2;P2;SDS_P1;SDS_P2;PMS_P1;PMS_P2;Temp;Humidity;BMP_temperature;BMP_pressure;BME280_temperature;BME280_humidity;BME280_pressure;Samples;Min_cycle;Max_cycle;Signal;HPM_P1;HPM_P2
2022/05/27 00:01:48;;;;;;;;;;;19.40;89.30;;;;;;5074956;28;19938;-91
2022/05/27 00:04:13;;;;;;;;;;;19.50;89.30;;;;;;5075198;28;19964;-91
2022/05/27 00:06:39;;;;;;;;;;;19.50;89.00;;;;;;5074873;28;20393;-91
2022/05/27 00:09:04;;;;;;;;;;;19.50;88.80;;;;;;5058712;28;19948;-91
2022/05/27 00:11:30;;;;;;;;;;;19.50;88.70;;;;;;5054883;28;19944;-91
2022/05/27 00:13:55;;;;;;;;;;;19.60;88.70;;;;;;5054671;28;20410;-91
2022/05/27 00:16:21;;;;;;;;;;;19.50;88.70;;;;;;5054676;28;19940;-91
2022/05/27 00:18:47;;;;;;;;;;;19.50;88.50;;;;;;5066182;28;19950;-91
2022/05/27 00:21:13;;;;;;;;;;;19.30;88.20;;;;;;5074584;28;19944;-91
2022/05/27 00:23:39;;;;;;;;;;;19.10;88.80;;;;;;5074437;28;19970;-91
2022/05/27 00:26:05;;;;;;;;;;;19.00;89.10;;;;;;5074615;28;19943;-91
2022/05/27 00:28:30;;;;;;;;;;;19.00;89.50;;;;;;5073765;28;19948;-91
2022/05/27 00:30:56;;;;;;;;;;;19.10;89.90;;;;;;5074438;28;20029;-91
2022/05/27 00:33:21;;;;;;;;;;;19.20;89.90;;;;;;5074078;28;20072;-91
2022/05/27 00:35:47;;;;;;;;;;;19.20;89.70;;;;;;5074324;28;19944;-91
2022/05/27 00:38:12;;;;;;;;;;;19.10;89.70;;;;;;5073986;28;19945;-91
2022/05/27 00:40:44;;;;;;;;;;;19.20;89.80;;;;;;5074240;28;19943;-91
2022/05/27 00:43:09;;;;;;;;;;;19.20;89.60;;;;;;5074052;28;19938;-90
2022/05/27 00:45:36;;;;;;;;;;;19.10;89.70;;;;;;5074146;28;19938;-90
2022/05/27 00:48:05;;;;;;;;;;;19.10;89.70;;;;;;5068891;28;19949;-91
2022/05/27 00:50:32;;;;;;;;;;;19.10;89.60;;;;;;5052943;28;20402;-91
2022/05/27 00:52:58;;;;;;;;;;;19.10;89.70;;;;;;5053780;28;20042;-91
2022/05/27 00:55:27;;;;;;;;;;;19.10;89.80;;;;;;5053890;28;19942;-90
2022/05/27 00:58:08;;;;;;;;;;;19.10;89.70;;;;;;5054176;28;19948;-91
2022/05/27 01:00:34;;;;;;;;;;;19.00;89.70;;;;;;5053891;28;19949;-91
2022/05/27 01:03:01;;;;;;;;;;;18.90;90.00;;;;;;5053925;28;19941;-90
2022/05/27 01:05:26;;;;;;;;;;;18.80;90.30;;;;;;5053821;28;20467;-91
2022/05/27 01:07:56;;;;;;;;;;;18.80;90.40;;;;;;5057252;28;19979;-91
2022/05/27 01:10:23;;;;;;;;;;;18.80;90.60;;;;;;5072034;28;20382;-90
2022/05/27 01:13:17;;;;;;;;;;;18.90;90.80;;;;;;5073721;28;19937;-91
2022/05/27 01:15:46;;;;;;;;;;;19.00;90.60;;;;;;5055821;28;20013;-91
2022/05/27 01:20:18;;;;;;;;;;;19.10;90.50;;;;;;5068073;28;19944;-91
2022/05/27 01:21:20;;;;;;;;;;;19.10;90.30;;;;;;5053502;28;19947;-91
2022/05/27 01:24:04;;;;;;;;;;;19.20;90.20;;;;;;5053482;28;20411;-91
2022/05/27 01:26:45;;;;;;;;;;;19.20;90.10;;;;;;5053469;28;19940;-90
2022/05/27 01:29:10;;;;;;;;;;;19.20;90.00;;;;;;5066633;28;20185;-91
2022/05/27 01:31:36;;;;;;;;;;;19.10;89.90;;;;;;5073280;28;20244;-91
2022/05/27 01:34:07;;;;;;;;;;;19.20;89.80;;;;;;5073176;28;20336;-91
2022/05/27 01:36:42;;;;;;;;;;;19.10;89.70;;;;;;5073368;28;19941;-90
2022/05/27 01:39:07;;;;;;;;;;;18.90;89.60;;;;;;5061026;28;19950;-90
2022/05/27 01:41:36;;;;;;;;;;;18.80;90.20;;;;;;5053226;28;20307;-90
2022/05/27 01:44:07;;;;;;;;;;;18.70;90.60;;;;;;5053181;28;19984;-91
2022/05/27 01:46:37;;;;;;;;;;;18.70;90.70;;;;;;5053196;28;19938;-91
2022/05/27 01:49:16;;;;;;;;;;;18.80;90.90;;;;;;5064927;28;19959;-91
2022/05/27 01:51:57;;;;;;;;;;;18.80;91.00;;;;;;5073287;28;19936;-91
2022/05/27 01:54:30;;;;;;;;;;;18.90;90.90;;;;;;5073162;28;20055;-90
2022/05/27 01:57:00;;;;;;;;;;;18.90;90.80;;;;;;5073135;28;19945;-91
2022/05/27 01:59:43;;;;;;;;;;;18.90;90.70;;;;;;5057637;28;19987;-90
2022/05/27 02:02:18;;;;;;;;;;;18.90;90.70;;;;;;5054474;28;19942;-90
2022/05/27 02:04:45;;;;;;;;;;;18.90;90.40;;;;;;5057758;28;19947;-90
2022/05/27 02:07:13;;;;;;;;;;;19.00;90.50;;;;;;5057127;28;19984;-91
2022/05/27 02:09:44;;;;;;;;;;;19.10;90.70;;;;;;5057568;28;20404;-91
2022/05/27 02:12:18;;;;;;;;;;;19.10;90.70;;;;;;5057066;28;20418;-90
2022/05/27 02:14:50;;;;;;;;;;;19.20;90.60;;;;;;5058008;28;20002;-91
2022/05/27 02:17:18;;;;;;;;;;;19.00;90.50;;;;;;5077096;28;20520;-90
2022/05/27 02:19:48;;;;;;;;;;;18.80;90.50;;;;;;5077018;28;19944;-90
2022/05/27 02:22:16;;;;;;;;;;;18.80;90.70;;;;;;5076921;28;19954;-90
2022/05/27 02:24:43;;;;;;;;;;;18.70;91.10;;;;;;5074037;28;20349;-91
2022/05/27 02:27:12;;;;;;;;;;;18.70;91.60;;;;;;5056890;28;19942;-91
2022/05/27 02:29:38;;;;;;;;;;;18.80;91.90;;;;;;5056829;28;20028;-91
2022/05/27 02:32:09;;;;;;;;;;;18.80;91.90;;;;;;5056607;28;20004;-90
2022/05/27 02:37:29;;;;;;;;;;;18.80;91.50;;;;;;5056596;28;19948;-90
2022/05/27 02:39:56;;;;;;;;;;;18.70;91.60;;;;;;5056571;28;19940;-90
2022/05/27 02:42:34;;;;;;;;;;;18.60;91.80;;;;;;5056510;28;20429;-90
2022/05/27 02:45:00;;;;;;;;;;;18.60;91.90;;;;;;5061056;28;20422;-91
2022/05/27 02:47:30;;;;;;;;;;;18.60;92.20;;;;;;5076417;28;19999;-91
2022/05/27 02:50:01;;;;;;;;;;;18.60;92.30;;;;;;5076428;28;19948;-91
2022/05/27 02:52:29;;;;;;;;;;;18.70;92.30;;;;;;5068207;28;20367;-90
2022/05/27 02:55:01;;;;;;;;;;;18.80;92.40;;;;;;5056230;28;20374;-90
2022/05/27 02:57:52;;;;;;;;;;;18.80;92.30;;;;;;5056223;28;19999;-91
2022/05/27 03:00:18;;;;;;;;;;;18.80;92.10;;;;;;5053205;28;19974;-91
2022/05/27 03:02:44;;;;;;;;;;;18.70;92.00;;;;;;5056324;28;20050;-91
2022/05/27 03:05:10;;;;;;;;;;;18.70;92.10;;;;;;5056058;28;20461;-90
2022/05/27 03:08:00;;;;;;;;;;;18.70;92.20;;;;;;5056076;28;20035;-91
2022/05/27 03:10:26;;;;;;;;;;;18.80;92.50;;;;;;5056034;28;19972;-91
2022/05/27 03:13:04;;;;;;;;;;;18.80;92.30;;;;;;5065892;28;20351;-91
2022/05/27 03:15:50;;;;;;;;;;;18.80;92.30;;;;;;5075496;28;20019;-91
2022/05/27 03:18:24;;;;;;;;;;;18.80;92.20;;;;;;5075873;28;19950;-90
2022/05/27 03:20:53;;;;;;;;;;;18.90;92.00;;;;;;5075274;28;19952;-90
2022/05/27 03:23:18;;;;;;;;;;;18.90;91.90;;;;;;5035743;28;19962;-91
2022/05/27 03:25:46;;;;;;;;;;;18.90;91.80;;;;;;5035774;28;19942;-91
2022/05/27 03:28:23;;;;;;;;;;;18.90;91.80;;;;;;5035823;28;19942;-91
2022/05/27 03:30:48;;;;;;;;;;;18.90;91.70;;;;;;5035769;28;19944;-91
2022/05/27 03:33:20;;;;;;;;;;;18.90;91.70;;;;;;5075256;28;20070;-91
2022/05/27 03:35:46;;;;;;;;;;;18.90;91.60;;;;;;5074212;28;19989;-90
2022/05/27 03:38:14;;;;;;;;;;;18.90;91.70;;;;;;5075439;28;20386;-91
2022/05/27 03:40:42;;;;;;;;;;;18.90;91.50;;;;;;5075421;28;19945;-91
2022/05/27 03:43:09;;;;;;;;;;;18.90;91.30;;;;;;5056599;28;19954;-91
2022/05/27 03:45:46;;;;;;;;;;;18.80;91.00;;;;;;5055354;28;19975;-91
2022/05/27 03:48:11;;;;;;;;;;;18.80;91.00;;;;;;5055383;28;19941;-91
2022/05/27 03:50:37;;;;;;;;;;;18.80;91.10;;;;;;5055265;28;19971;-90
2022/05/27 03:53:02;;;;;;;;;;;18.80;91.20;;;;;;5055425;28;20044;-91
2022/05/27 03:55:28;;;;;;;;;;;18.80;91.10;;;;;;5053780;28;19976;-91
2022/05/27 03:57:54;;;;;;;;;;;18.80;91.20;;;;;;5055376;28;19976;-91
2022/05/27 04:00:20;;;;;;;;;;;18.90;91.30;;;;;;5055110;28;20404;-91
2022/05/27 04:02:45;;;;;;;;;;;18.90;91.20;;;;;;5055273;28;19989;-91
2022/05/27 04:05:12;;;;;;;;;;;18.90;91.30;;;;;;5054999;28;19949;-90
2022/05/27 04:07:38;;;;;;;;;;;18.80;91.20;;;;;;5055140;28;19995;-90
2022/05/27 04:10:04;;;;;;;;;;;18.80;91.10;;;;;;5054869;28;20021;-91
2022/05/27 04:12:29;;;;;;;;;;;18.80;91.10;;;;;;5067598;28;19941;-91
2022/05/27 04:14:55;;;;;;;;;;;18.80;91.20;;;;;;5074709;28;19965;-91
2022/05/27 04:17:32;;;;;;;;;;;18.80;91.30;;;;;;5074734;28;19942;-91
2022/05/27 04:20:07;;;;;;;;;;;18.80;91.30;;;;;;5074708;28;19948;-91
2022/05/27 04:22:33;;;;;;;;;;;18.90;91.50;;;;;;5073814;28;19944;-91
2022/05/27 04:24:59;;;;;;;;;;;18.90;91.30;;;;;;5074370;28;20181;-91
2022/05/27 04:27:25;;;;;;;;;;;19.00;91.20;;;;;;5074603;28;19948;-91
2022/05/27 04:29:51;;;;;;;;;;;19.00;91.00;;;;;;5074511;28;19986;-91
2022/05/27 04:32:17;;;;;;;;;;;19.00;90.90;;;;;;5063766;28;20002;-91
2022/05/27 04:34:43;;;;;;;;;;;19.10;91.00;;;;;;5054249;28;20018;-91
2022/05/27 04:37:09;;;;;;;;;;;19.20;91.00;;;;;;5054365;28;19939;-90
2022/05/27 04:39:35;;;;;;;;;;;19.20;91.00;;;;;;5063636;28;19953;-91
2022/05/27 04:42:00;;;;;;;;;;;19.20;91.00;;;;;;5074286;28;19962;-91
2022/05/27 04:44:26;;;;;;;;;;;19.30;91.00;;;;;;5074147;28;20353;-91
2022/05/27 04:46:51;;;;;;;;;;;19.30;91.00;;;;;;5074186;28;19937;-91
2022/05/27 04:52:01;;;;;;;;;;;19.30;91.20;;;;;;5074383;28;20399;-90
2022/05/27 04:54:27;;;;;;;;;;;19.40;91.30;;;;;;5073951;28;19963;-91
2022/05/27 04:56:53;;;;;;;;;;;19.50;91.20;;;;;;5074566;28;19950;-90
2022/05/27 04:59:19;;;;;;;;;;;19.50;91.30;;;;;;5060012;28;19988;-90
2022/05/27 05:01:45;;;;;;;;;;;19.50;91.30;;;;;;5052943;28;19958;-91
2022/05/27 05:04:10;;;;;;;;;;;19.60;91.40;;;;;;5051455;28;19953;-91
2022/05/27 05:06:36;;;;;;;;;;;19.60;91.60;;;;;;5053470;28;20295;-91
2022/05/27 05:09:01;;;;;;;;;;;19.60;91.70;;;;;;5057616;28;20288;-91
2022/05/27 05:11:27;;;;;;;;;;;19.60;91.70;;;;;;5068977;28;20436;-91
2022/05/27 05:13:52;;;;;;;;;;;19.70;91.70;;;;;;5053430;28;19976;-91
2022/05/27 05:16:18;;;;;;;;;;;19.70;91.60;;;;;;5053123;28;20412;-91
2022/05/27 05:18:43;;;;;;;;;;;19.70;91.50;;;;;;5054063;28;19945;-90
2022/05/27 05:21:09;;;;;;;;;;;19.80;91.50;;;;;;5052882;28;19950;-91
2022/05/27 05:23:34;;;;;;;;;;;19.80;91.50;;;;;;5053156;28;20071;-91
2022/05/27 05:26:00;;;;;;;;;;;19.90;91.40;;;;;;5053030;28;19950;-90
2022/05/27 05:28:26;;;;;;;;;;;20.00;90.90;;;;;;5052974;28;19955;-91
2022/05/27 05:30:51;;;;;;;;;;;20.00;90.20;;;;;;5046202;28;20039;-91
2022/05/27 05:33:17;;;;;;;;;;;20.10;90.30;;;;;;5075454;22;20325;-90
2022/05/27 05:35:42;;;;;;;;;;;20.30;89.80;;;;;;5072372;28;20019;-90
2022/05/27 05:38:08;;;;;;;;;;;20.30;89.70;;;;;;5070210;28;19953;-91
2022/05/27 05:40:34;;;;;;;;;;;20.40;89.10;;;;;;5058143;28;19948;-90
2022/05/27 05:43:01;;;;;;;;;;;20.40;88.90;;;;;;5057941;28;20428;-91
2022/05/27 05:45:26;;;;;;;;;;;20.40;88.70;;;;;;5064223;28;20444;-90
2022/05/27 05:47:52;;;;;;;;;;;20.50;88.30;;;;;;5072362;28;19944;-91
2022/05/27 05:50:18;;;;;;;;;;;20.60;88.50;;;;;;5068416;28;20035;-91
2022/05/27 05:52:44;;;;;;;;;;;20.70;88.20;;;;;;5067847;28;20078;-91
2022/05/27 05:55:10;;;;;;;;;;;20.80;88.10;;;;;;5061968;28;20011;-91
2022/05/27 05:57:36;;;;;;;;;;;20.80;87.90;;;;;;5063804;28;19989;-91
2022/05/27 06:00:02;;;;;;;;;;;20.90;87.40;;;;;;5065729;28;20282;-91
2022/05/27 06:02:28;;;;;;;;;;;21.00;86.50;;;;;;5065707;28;20590;-91
2022/05/27 06:04:53;;;;;;;;;;;21.20;86.10;;;;;;5065734;28;20040;-91
2022/05/27 06:07:19;;;;;;;;;;;21.20;85.70;;;;;;5064240;28;19992;-91
2022/05/27 06:09:44;;;;;;;;;;;21.30;85.40;;;;;;5067478;28;19949;-91
2022/05/27 06:12:10;;;;;;;;;;;21.40;85.50;;;;;;5068242;28;19944;-91
2022/05/27 06:14:36;;;;;;;;;;;21.40;85.70;;;;;;5070370;28;20314;-91
2022/05/27 06:17:01;;;;;;;;;;;21.50;85.50;;;;;;5070842;28;20317;-91
2022/05/27 06:19:27;;;;;;;;;;;21.60;85.30;;;;;;5070922;28;19961;-91
2022/05/27 06:21:53;;;;;;;;;;;21.60;85.30;;;;;;5066923;28;20345;-90
2022/05/27 06:24:18;;;;;;;;;;;21.70;85.10;;;;;;5066710;28;20060;-91
2022/05/27 06:26:44;;;;;;;;;;;21.80;85.60;;;;;;5072691;28;19948;-91
2022/05/27 06:34:38;;;;;;;;;;;22.10;84.00;;;;;;5069682;28;19971;-91
2022/05/27 06:37:18;;;;;;;;;;;22.30;83.20;;;;;;5061799;28;19947;-91
2022/05/27 06:39:44;;;;;;;;;;;22.30;82.80;;;;;;5067109;28;20393;-90
2022/05/27 06:42:11;;;;;;;;;;;22.50;81.50;;;;;;5068983;28;19958;-91
2022/05/27 06:44:36;;;;;;;;;;;22.70;81.80;;;;;;5065960;28;19945;-92
2022/05/27 06:47:03;;;;;;;;;;;22.80;81.70;;;;;;5069071;28;19947;-91
2022/05/27 06:49:28;;;;;;;;;;;22.90;81.10;;;;;;5071223;28;19946;-91
2022/05/27 06:51:54;;;;;;;;;;;23.10;80.80;;;;;;5072513;28;20381;-91
2022/05/27 06:54:20;;;;;;;;;;;23.20;80.30;;;;;;5070517;28;20489;-91
2022/05/27 06:56:46;;;;;;;;;;;23.20;77.90;;;;;;5071984;28;19949;-91
2022/05/27 06:59:12;;;;;;;;;;;23.20;78.70;;;;;;5070644;28;19953;-90
2022/05/27 07:01:38;;;;;;;;;;;23.20;79.10;;;;;;5069323;28;19948;-91
2022/05/27 07:04:04;;;;;;;;;;;23.30;79.70;;;;;;5070658;28;20420;-90
2022/05/27 07:06:35;;;;;;;;;;;23.30;79.50;;;;;;5073847;28;19952;-91
2022/05/27 07:09:03;;;;;;;;;;;23.30;79.00;;;;;;5067984;28;20403;-91
2022/05/27 07:11:28;;;;;;;;;;;23.30;78.50;;;;;;5066736;28;19946;-91
2022/05/27 07:13:54;;;;;;;;;;;23.40;78.40;;;;;;5069564;28;20383;-91
2022/05/27 07:16:19;;;;;;;;;;;23.50;78.40;;;;;;5073700;28;20386;-91
2022/05/27 07:18:45;;;;;;;;;;;23.60;78.00;;;;;;5065095;28;20445;-91
2022/05/27 07:21:10;;;;;;;;;;;23.70;76.90;;;;;;5071150;28;19939;-91
2022/05/27 07:23:36;;;;;;;;;;;23.70;77.60;;;;;;5067385;28;20325;-91
2022/05/27 07:26:02;;;;;;;;;;;23.80;77.60;;;;;;5064102;28;19945;-91
2022/05/27 07:28:28;;;;;;;;;;;23.80;77.30;;;;;;5072247;28;19939;-91
2022/05/27 07:30:54;;;;;;;;;;;23.90;76.20;;;;;;5063548;28;19950;-90
2022/05/27 07:33:20;;;;;;;;;;;24.00;76.60;;;;;;5071409;28;19983;-91
2022/05/27 07:35:46;;;;;;;;;;;24.00;74.20;;;;;;5076891;28;19967;-91
2022/05/27 07:38:12;;;;;;;;;;;24.10;75.70;;;;;;5072124;28;19949;-91
2022/05/27 07:40:38;;;;;;;;;;;24.30;76.60;;;;;;5058550;28;19937;-91
2022/05/27 07:43:06;;;;;;;;;;;24.30;75.30;;;;;;5069300;28;19956;-91
2022/05/27 07:45:32;;;;;;;;;;;24.40;74.20;;;;;;5061279;28;19946;-91
2022/05/27 07:47:57;;;;;;;;;;;24.60;74.00;;;;;;5065789;28;19948;-91
2022/05/27 07:50:23;;;;;;;;;;;24.70;71.80;;;;;;5066424;28;20769;-91
2022/05/27 07:52:49;;;;;;;;;;;24.70;70.90;;;;;;5064046;28;20310;-91
2022/05/27 07:55:15;;;;;;;;;;;24.80;70.60;;;;;;5070321;28;19989;-91
2022/05/27 07:57:44;;;;;;;;;;;24.90;70.90;;;;;;5062363;28;19953;-91
2022/05/27 08:00:12;;;;;;;;;;;24.90;70.60;;;;;;5064758;28;19949;-91
2022/05/27 08:02:38;;;;;;;;;;;24.90;71.10;;;;;;5067727;28;19952;-91
2022/05/27 08:05:04;;;;;;;;;;;25.00;70.40;;;;;;5071128;28;20397;-91
2022/05/27 08:07:29;;;;;;;;;;;25.10;70.80;;;;;;5069413;28;19947;-91
2022/05/27 08:09:55;;;;;;;;;;;25.10;72.20;;;;;;5070104;28;19948;-91
2022/05/27 08:12:20;;;;;;;;;;;25.20;70.10;;;;;;5074372;28;20313;-90
2022/05/27 08:14:46;;;;;;;;;;;25.00;70.00;;;;;;5070537;28;20345;-91
2022/05/27 08:17:12;;;;;;;;;;;25.00;72.30;;;;;;5070674;28;20031;-91
2022/05/27 08:19:37;;;;;;;;;;;25.00;70.80;;;;;;5069792;28;19987;-90
2022/05/27 08:22:04;;;;;;;;;;;25.00;71.50;;;;;;5065257;28;19993;-91
2022/05/27 08:24:30;;;;;;;;;;;24.90;71.30;;;;;;5070609;28;19945;-91
2022/05/27 08:26:55;;;;;;;;;;;24.90;72.00;;;;;;5066590;28;20016;-91
2022/05/27 08:29:21;;;;;;;;;;;24.90;72.50;;;;;;5060443;28;19955;-90
2022/05/27 08:31:46;;;;;;;;;;;24.90;71.20;;;;;;5064300;28;19969;-91
2022/05/27 08:39:46;;;;;;;;;;;25.00;70.40;;;;;;5062453;28;19964;-91
2022/05/27 08:42:20;;;;;;;;;;;25.10;71.40;;;;;;5065796;28;19940;-91
2022/05/27 08:44:46;;;;;;;;;;;25.10;71.60;;;;;;5064539;28;19957;-91
2022/05/27 08:47:20;;;;;;;;;;;25.10;70.70;;;;;;5071367;28;19943;-91
2022/05/27 08:49:48;;;;;;;;;;;25.20;72.40;;;;;;5068269;28;19950;-91
2022/05/27 08:52:17;;;;;;;;;;;25.20;69.30;;;;;;5061702;28;19971;-91
2022/05/27 08:54:46;;;;;;;;;;;25.20;68.10;;;;;;5061993;28;19966;-91
2022/05/27 09:00:02;;;;;;;;;;;25.40;69.70;;;;;;5068013;28;19950;-91
2022/05/27 09:02:27;;;;;;;;;;;25.50;69.70;;;;;;5074482;28;19947;-91
2022/05/27 09:05:01;;;;;;;;;;;25.60;69.10;;;;;;5067095;28;20315;-91
2022/05/27 09:07:38;;;;;;;;;;;25.70;68.90;;;;;;5057936;28;19954;-91
2022/05/27 09:10:06;;;;;;;;;;;25.80;67.90;;;;;;5069296;28;20353;-91
2022/05/27 09:12:50;;;;;;;;;;;25.90;66.80;;;;;;5058755;28;19979;-91
2022/05/27 09:15:21;;;;;;;;;;;26.00;66.10;;;;;;5064304;28;19995;-92
2022/05/27 09:17:48;;;;;;;;;;;26.00;65.20;;;;;;5068018;28;19950;-91
2022/05/27 09:20:21;;;;;;;;;;;26.00;67.00;;;;;;5063368;28;19943;-91
2022/05/27 09:22:56;;;;;;;;;;;26.00;67.80;;;;;;5063919;28;19959;-91
2022/05/27 09:25:26;;;;;;;;;;;26.10;65.70;;;;;;5071712;28;19941;-92
2022/05/27 09:27:51;;;;;;;;;;;26.20;67.00;;;;;;5065918;28;20376;-91
2022/05/27 09:30:18;;;;;;;;;;;26.10;65.60;;;;;;5067603;28;19945;-91
2022/05/27 09:32:47;;;;;;;;;;;26.00;66.70;;;;;;5068289;28;20337;-91
2022/05/27 09:35:15;;;;;;;;;;;25.90;68.50;;;;;;5061629;28;20100;-91
2022/05/27 09:37:42;;;;;;;;;;;26.00;65.70;;;;;;5067468;28;19946;-91
2022/05/27 09:40:20;;;;;;;;;;;26.00;66.40;;;;;;5072895;28;20408;-91
2022/05/27 09:42:45;;;;;;;;;;;26.10;66.90;;;;;;5067140;28;20475;-91
2022/05/27 09:45:12;;;;;;;;;;;26.20;64.70;;;;;;5063681;28;19980;-91
2022/05/27 09:47:38;;;;;;;;;;;26.20;66.10;;;;;;5070757;28;20349;-91
2022/05/27 09:50:06;;;;;;;;;;;26.30;65.40;;;;;;5070443;28;20380;-91
2022/05/27 09:52:38;;;;;;;;;;;26.40;65.10;;;;;;5067047;28;19948;-91
2022/05/27 09:55:33;;;;;;;;;;;26.30;65.50;;;;;;5065280;28;19979;-91
2022/05/27 09:58:00;;;;;;;;;;;26.40;65.40;;;;;;5062043;28;19953;-91
2022/05/27 10:00:46;;;;;;;;;;;26.50;66.90;;;;;;5066934;28;20025;-91
2022/05/27 10:03:20;;;;;;;;;;;26.50;65.20;;;;;;5060874;28;19971;-91
2022/05/27 10:06:12;;;;;;;;;;;26.60;65.80;;;;;;5060889;28;19954;-91
2022/05/27 10:08:45;;;;;;;;;;;26.70;65.40;;;;;;5065235;28;19993;-91
2022/05/27 10:11:11;;;;;;;;;;;26.70;64.70;;;;;;5065156;28;19940;-91
2022/05/27 10:13:37;;;;;;;;;;;26.90;65.10;;;;;;5070259;28;19937;-92
2022/05/27 10:16:10;;;;;;;;;;;27.00;65.00;;;;;;5068676;28;19954;-91
2022/05/27 10:18:36;;;;;;;;;;;27.20;63.90;;;;;;5068099;28;20439;-91
2022/05/27 10:21:03;;;;;;;;;;;27.20;64.00;;;;;;5067510;28;19944;-91
2022/05/27 10:23:30;;;;;;;;;;;27.30;64.00;;;;;;5067953;28;19971;-91
2022/05/27 10:25:55;;;;;;;;;;;27.50;62.80;;;;;;5072114;28;19953;-91
2022/05/27 10:28:31;;;;;;;;;;;27.40;62.60;;;;;;5070127;28;19942;-91
2022/05/27 10:30:59;;;;;;;;;;;27.50;63.70;;;;;;5067097;28;19946;-92
2022/05/27 10:33:42;;;;;;;;;;;27.60;62.50;;;;;;5069798;28;20025;-91
2022/05/27 10:36:31;;;;;;;;;;;27.50;61.20;;;;;;5064141;28;19955;-91
2022/05/27 10:39:16;;;;;;;;;;;27.70;62.60;;;;;;5059687;28;20051;-91
2022/05/27 10:41:42;;;;;;;;;;;27.80;65.90;;;;;;5064094;28;19992;-91
2022/05/27 10:44:10;;;;;;;;;;;28.00;62.90;;;;;;5061997;28;19944;-91
2022/05/27 10:46:44;;;;;;;;;;;28.00;61.00;;;;;;5076470;28;19950;-91
2022/05/27 10:49:13;;;;;;;;;;;27.90;63.40;;;;;;5076253;28;19935;-91
2022/05/27 10:51:53;;;;;;;;;;;27.90;62.80;;;;;;5076293;28;19943;-92
2022/05/27 10:54:22;;;;;;;;;;;27.90;62.10;;;;;;5075804;28;20007;-91
2022/05/27 11:02:04;;;;;;;;;;;28.00;63.40;;;;;;5076143;28;19943;-91
2022/05/27 11:02:23;;;;;;;;;;;28.10;61.60;;;;;;5076311;28;20033;-91
2022/05/27 11:05:08;;;;;;;;;;;28.10;62.30;;;;;;5076057;28;19975;-92
2022/05/27 11:07:43;;;;;;;;;;;28.20;61.60;;;;;;5075562;28;20428;-91
2022/05/27 11:10:09;;;;;;;;;;;28.40;61.20;;;;;;5074501;28;20011;-91
2022/05/27 11:16:01;;;;;;;;;;;28.70;60.30;;;;;;5074191;28;19966;-92
2022/05/27 11:18:45;;;;;;;;;;;29.00;60.30;;;;;;5058410;28;19944;-91
2022/05/27 11:21:11;;;;;;;;;;;29.10;58.70;;;;;;5085945;28;20048;-91
2022/05/27 11:23:50;;;;;;;;;;;28.90;57.70;;;;;;5066036;28;20052;-91
2022/05/27 11:26:34;;;;;;;;;;;28.90;59.50;;;;;;5066878;28;19946;-91
2022/05/27 11:29:06;;;;;;;;;;;28.70;58.00;;;;;;5084522;28;19951;-91
2022/05/27 11:31:43;;;;;;;;;;;28.60;60.30;;;;;;5064286;28;19957;-91
2022/05/27 11:34:22;;;;;;;;;;;28.70;58.30;;;;;;5065193;28;20014;-91
2022/05/27 11:36:59;;;;;;;;;;;28.80;58.30;;;;;;5068286;28;19948;-91
2022/05/27 11:39:49;;;;;;;;;;;28.60;58.90;;;;;;5073135;28;19951;-91
2022/05/27 11:42:29;;;;;;;;;;;28.80;61.50;;;;;;5068373;28;19941;-91
2022/05/27 11:44:58;;;;;;;;;;;28.90;58.30;;;;;;5061454;28;20217;-91
2022/05/27 11:47:23;;;;;;;;;;;28.90;57.50;;;;;;5056275;28;19946;-91
2022/05/27 11:49:58;;;;;;;;;;;29.00;57.10;;;;;;5055474;28;19946;-91
2022/05/27 11:52:23;;;;;;;;;;;29.20;56.20;;;;;;5069785;28;20016;-90
2022/05/27 11:55:04;;;;;;;;;;;29.50;56.10;;;;;;5066408;28;19997;-90
2022/05/27 11:57:49;;;;;;;;;;;29.70;55.70;;;;;;5066370;28;19940;-91
2022/05/27 12:00:19;;;;;;;;;;;30.20;55.60;;;;;;5068288;28;19950;-91
2022/05/27 12:03:03;;;;;;;;;;;30.30;53.50;;;;;;5071102;28;19988;-90
2022/05/27 12:05:33;;;;;;;;;;;30.50;54.60;;;;;;5070045;28;20098;-90
2022/05/27 12:08:22;;;;;;;;;;;30.50;53.60;;;;;;5069656;28;20416;-91
2022/05/27 12:11:08;;;;;;;;;;;30.60;51.30;;;;;;5068462;28;19948;-90
2022/05/27 12:13:40;;;;;;;;;;;30.90;52.20;;;;;;5062994;28;19962;-91
2022/05/27 12:16:09;;;;;;;;;;;31.40;51.10;;;;;;5068250;28;19951;-92
2022/05/27 12:18:35;;;;;;;;;;;31.50;51.20;;;;;;5068252;28;19954;-91
2022/05/27 12:21:01;;;;;;;;;;;31.20;51.00;;;;;;5071989;28;19951;-91
2022/05/27 12:23:27;;;;;;;;;;;31.10;53.60;;;;;;5069669;28;19956;-91
2022/05/27 12:25:55;;;;;;;;;;;30.80;52.80;;;;;;5069756;28;19952;-91
2022/05/27 12:28:26;;;;;;;;;;;31.00;54.00;;;;;;5067128;28;19951;-91
2022/05/27 12:30:52;;;;;;;;;;;31.40;50.90;;;;;;5068473;28;20384;-91
2022/05/27 12:33:20;;;;;;;;;;;31.60;49.70;;;;;;5064165;28;19970;-91
2022/05/27 12:35:49;;;;;;;;;;;31.30;50.90;;;;;;5073455;28;20439;-91
2022/05/27 12:38:16;;;;;;;;;;;31.70;49.30;;;;;;5069230;28;19954;-92
2022/05/27 12:40:47;;;;;;;;;;;32.10;49.50;;;;;;5067573;28;19993;-90
2022/05/27 12:43:25;;;;;;;;;;;32.20;49.40;;;;;;5068058;28;19941;-91
2022/05/27 12:46:00;;;;;;;;;;;32.00;48.70;;;;;;5073591;28;19950;-91
2022/05/27 12:48:27;;;;;;;;;;;32.10;49.90;;;;;;5088852;28;20097;-92
2022/05/27 12:50:54;;;;;;;;;;;32.60;50.10;;;;;;5072117;28;19960;-91
2022/05/27 12:53:33;;;;;;;;;;;33.00;46.90;;;;;;5066838;28;19944;-92
2022/05/27 13:02:14;;;;;;;;;;;31.90;48.60;;;;;;5068258;28;19945;-91
2022/05/27 13:04:50;;;;;;;;;;;31.90;49.30;;;;;;5065391;28;19950;-92
2022/05/27 13:07:20;;;;;;;;;;;31.90;48.90;;;;;;5065584;28;19951;-92
2022/05/27 13:09:47;;;;;;;;;;;32.40;48.60;;;;;;5067830;28;20397;-92
2022/05/27 13:12:31;;;;;;;;;;;33.00;47.90;;;;;;5067534;28;20019;-92
2022/05/27 13:15:06;;;;;;;;;;;33.40;46.90;;;;;;5064875;28;19973;-91
2022/05/27 13:17:35;;;;;;;;;;;34.00;45.00;;;;;;5067140;28;20019;-91
2022/05/27 13:20:16;;;;;;;;;;;34.00;45.20;;;;;;5064283;28;19952;-92
2022/05/27 13:23:00;;;;;;;;;;;34.60;43.80;;;;;;5062096;28;19997;-91
2022/05/27 13:25:30;;;;;;;;;;;35.20;42.30;;;;;;5067179;28;20436;-91
2022/05/27 13:28:03;;;;;;;;;;;35.30;42.00;;;;;;5066688;28;19952;-91
2022/05/27 13:30:47;;;;;;;;;;;35.20;45.00;;;;;;5067443;28;19947;-92
2022/05/27 13:33:13;;;;;;;;;;;36.10;40.50;;;;;;5055701;22;19978;-92
2022/05/27 13:35:42;;;;;;;;;;;36.40;40.20;;;;;;5041657;28;19965;-92
2022/05/27 13:38:09;;;;;;;;;;;36.00;41.30;;;;;;5035269;28;19971;-91
2022/05/27 13:40:35;;;;;;;;;;;35.80;40.30;;;;;;5038348;28;19942;-91
2022/05/27 13:43:17;;;;;;;;;;;35.10;41.60;;;;;;5035707;28;19955;-91
2022/05/27 13:45:55;;;;;;;;;;;35.60;41.70;;;;;;5041887;28;20046;-92
2022/05/27 13:48:41;;;;;;;;;;;36.00;40.40;;;;;;5039281;28;19942;-92
2022/05/27 13:51:08;;;;;;;;;;;35.70;41.70;;;;;;5039638;28;19961;-92
2022/05/27 13:53:35;;;;;;;;;;;35.70;39.30;;;;;;5040600;28;19946;-92
2022/05/27 13:56:21;;;;;;;;;;;35.50;40.50;;;;;;5038015;28;20403;-92
2022/05/27 13:58:47;;;;;;;;;;;34.70;41.70;;;;;;5037444;28;19950;-91
2022/05/27 14:01:13;;;;;;;;;;;34.30;42.50;;;;;;5037621;28;19934;-92
2022/05/27 14:03:40;;;;;;;;;;;34.50;42.40;;;;;;5042174;28;20327;-92
2022/05/27 14:06:06;;;;;;;;;;;34.20;43.40;;;;;;5039477;28;19953;-92
2022/05/27 14:08:40;;;;;;;;;;;34.90;42.60;;;;;;5041111;28;19941;-92
2022/05/27 14:11:13;;;;;;;;;;;35.20;42.20;;;;;;5036152;28;20028;-92
2022/05/27 14:13:39;;;;;;;;;;;34.90;41.30;;;;;;5034983;28;19941;-92
2022/05/27 14:16:08;;;;;;;;;;;35.20;40.80;;;;;;5046592;28;20410;-92
2022/05/27 14:18:34;;;;;;;;;;;35.50;41.10;;;;;;5047974;28;19946;-92
2022/05/27 14:23:48;;;;;;;;;;;35.80;39.30;;;;;;5040682;28;20249;-92
2022/05/27 14:26:14;;;;;;;;;;;35.60;39.20;;;;;;5047906;28;20182;-92
2022/05/27 14:28:49;;;;;;;;;;;35.10;41.60;;;;;;5045575;28;20399;-92
2022/05/27 14:31:20;;;;;;;;;;;35.60;40.40;;;;;;5049054;28;19946;-92
2022/05/27 14:33:49;;;;;;;;;;;35.70;40.50;;;;;;5042998;28;19986;-91
2022/05/27 14:36:16;;;;;;;;;;;34.80;41.50;;;;;;5043801;28;19963;-91
2022/05/27 14:38:42;;;;;;;;;;;34.20;41.70;;;;;;5049460;28;19957;-92
2022/05/27 14:41:11;;;;;;;;;;;34.70;41.50;;;;;;5049189;28;19993;-91
2022/05/27 14:43:39;;;;;;;;;;;35.20;41.20;;;;;;5046751;28;19955;-92
2022/05/27 14:46:21;;;;;;;;;;;35.60;39.70;;;;;;5037947;28;19984;-91
2022/05/27 14:48:48;;;;;;;;;;;35.70;40.50;;;;;;5046598;28;19967;-91
2022/05/27 14:51:20;;;;;;;;;;;35.70;40.30;;;;;;5041577;28;19955;-92
2022/05/27 14:53:47;;;;;;;;;;;35.40;40.40;;;;;;5040815;28;19947;-92
2022/05/27 14:56:18;;;;;;;;;;;35.40;41.40;;;;;;5046854;28;20464;-92
2022/05/27 14:58:44;;;;;;;;;;;35.90;39.60;;;;;;5042781;28;19944;-92
2022/05/27 15:01:13;;;;;;;;;;;35.70;40.00;;;;;;5045306;28;19955;-92
2022/05/27 15:03:42;;;;;;;;;;;34.90;40.70;;;;;;5043507;28;19954;-92
2022/05/27 15:06:16;;;;;;;;;;;34.40;41.40;;;;;;5040745;28;19954;-92